createdAt,value
2018-11-22T12:17:41.893Z,4.40
2018-11-22T12:20:11.885Z,4.40
2018-11-22T12:22:41.805Z,4.30
2018-11-22T12:25:12.499Z,4.30
2018-11-22T12:27:41.902Z,4.40
2018-11-22T12:30:17.024Z,4.40
2018-11-22T12:34:54.434Z,4.40
2018-11-22T12:37:28.276Z,4.40
2018-11-22T12:39:56.802Z,4.40
2018-11-22T12:42:25.415Z,4.40
2018-11-22T12:44:58.182Z,4.40
2018-11-22T12:47:26.838Z,4.40
2018-11-22T12:49:55.421Z,4.50
2018-11-22T12:52:23.928Z,4.50
2018-11-22T12:54:52.531Z,4.50
2018-11-22T12:57:21.085Z,4.60
2018-11-22T12:59:49.754Z,4.60
2018-11-22T13:02:18.763Z,4.60
2018-11-22T13:04:47.352Z,4.60
2018-11-22T13:07:15.940Z,4.60
2018-11-22T13:09:44.568Z,4.60
2018-11-22T13:12:13.100Z,4.60
2018-11-22T13:14:41.767Z,4.60
2018-11-22T13:17:10.565Z,4.60
2018-11-22T13:19:39.906Z,4.60
2018-11-22T13:22:11.794Z,4.60
2018-11-22T13:24:40.424Z,4.60
2018-11-22T13:27:11.166Z,4.60
2018-11-22T13:29:39.858Z,4.60
2018-11-22T13:32:08.395Z,4.60
2018-11-22T13:34:39.076Z,4.60
2018-11-22T13:37:07.619Z,4.60
2018-11-22T13:39:36.136Z,4.70
2018-11-22T13:42:04.944Z,4.70
2018-11-22T13:44:33.465Z,4.70
2018-11-22T13:47:03.078Z,4.70
2018-11-22T13:49:31.640Z,4.70
2018-11-22T13:52:00.216Z,4.70
2018-11-22T13:54:28.760Z,4.70
2018-11-22T13:56:57.319Z,4.70
2018-11-22T13:59:25.848Z,4.70
2018-11-22T14:01:54.450Z,4.70
2018-11-22T14:04:22.960Z,4.70
2018-11-22T14:06:51.518Z,4.70
2018-11-22T14:09:20.067Z,4.70
2018-11-22T14:11:48.701Z,4.70
2018-11-22T14:14:17.240Z,4.70
2018-11-22T14:16:45.892Z,4.70
2018-11-22T14:19:14.480Z,4.70
2018-11-22T14:21:43.056Z,4.70
2018-11-22T14:24:11.672Z,4.70
2018-11-22T14:26:40.300Z,4.70
2018-11-22T14:29:08.904Z,4.70
2018-11-22T14:31:37.777Z,4.70
2018-11-22T14:34:06.981Z,4.70
2018-11-22T14:36:35.556Z,4.70
2018-11-22T14:39:06.508Z,4.70
2018-11-22T14:41:35.067Z,4.70
2018-11-22T14:44:03.689Z,4.70
2018-11-22T14:46:32.308Z,4.70
2018-11-22T14:49:02.397Z,4.70
2018-11-22T14:51:37.011Z,4.70
2018-11-22T14:54:07.488Z,4.70
2018-11-22T14:56:36.055Z,4.70
2018-11-22T14:59:04.689Z,4.70
2018-11-22T15:01:33.308Z,4.70
2018-11-22T15:04:03.053Z,4.70
2018-11-22T15:06:31.630Z,4.70
2018-11-22T15:09:00.204Z,4.70
2018-11-22T15:11:28.764Z,4.70
2018-11-22T15:13:57.586Z,4.70
2018-11-22T15:16:26.178Z,4.70
2018-11-22T15:18:54.827Z,4.70
2018-11-22T15:21:23.420Z,4.70
2018-11-22T15:23:51.961Z,4.70
2018-11-22T15:26:20.538Z,4.70
2018-11-22T15:28:49.149Z,4.70
2018-11-22T15:31:17.764Z,4.70
2018-11-22T15:33:46.277Z,4.70
2018-11-22T15:36:14.876Z,4.70
2018-11-22T15:38:43.445Z,4.70
2018-11-22T15:41:12.017Z,4.70
2018-11-22T15:43:40.582Z,4.70
2018-11-22T15:46:09.195Z,4.70
2018-11-22T15:48:37.779Z,4.70
2018-11-22T15:51:06.441Z,4.70
2018-11-22T15:53:35.022Z,4.70
2018-11-22T15:56:03.685Z,4.70
2018-11-22T15:58:32.257Z,4.70
2018-11-22T16:01:07.325Z,4.70
2018-11-22T16:03:35.884Z,4.70
2018-11-22T16:06:04.669Z,4.70
2018-11-22T16:08:33.210Z,4.70
2018-11-22T16:11:03.160Z,4.70
2018-11-22T16:13:31.761Z,4.70
2018-11-22T16:16:00.359Z,4.70
2018-11-22T16:18:28.929Z,4.70
2018-11-22T16:20:57.543Z,4.70
2018-11-22T16:23:26.093Z,4.70
2018-11-22T16:25:54.780Z,4.70
2018-11-22T16:28:23.564Z,4.70
2018-11-22T16:30:52.226Z,4.70
2018-11-22T16:33:21.030Z,4.70
2018-11-22T16:35:49.866Z,4.70
2018-11-22T16:38:18.563Z,4.80
2018-11-22T16:40:47.237Z,4.70
2018-11-22T16:43:15.930Z,4.70
2018-11-22T16:45:44.686Z,4.70
2018-11-22T16:48:15.220Z,4.70
2018-11-22T16:50:44.447Z,4.80
2018-11-22T16:53:13.177Z,4.80
2018-11-22T16:55:41.819Z,4.80
2018-11-22T16:58:10.597Z,4.80
2018-11-22T17:00:40.283Z,4.80
2018-11-22T17:03:10.946Z,4.80
2018-11-22T17:05:39.934Z,4.80
2018-11-22T17:08:09.346Z,4.80
2018-11-22T17:10:38.716Z,4.80
2018-11-22T17:13:07.504Z,4.80
2018-11-22T17:15:37.604Z,4.80
2018-11-22T17:18:07.129Z,4.80
2018-11-22T17:20:35.829Z,4.80
2018-11-22T17:23:05.138Z,4.80
2018-11-22T17:25:34.847Z,4.80
2018-11-22T17:28:06.154Z,4.80
2018-11-22T17:30:39.555Z,4.80
2018-11-22T17:33:09.533Z,4.80
2018-11-22T17:35:38.551Z,4.80
2018-11-22T17:38:08.249Z,4.80
2018-11-22T17:40:38.421Z,4.80
2018-11-22T17:43:07.289Z,4.80
2018-11-22T17:45:38.291Z,4.90
2018-11-22T17:48:07.197Z,4.90
2018-11-22T17:50:37.571Z,4.90
2018-11-22T17:53:06.745Z,4.90
2018-11-22T17:55:35.507Z,4.90
2018-11-22T17:58:04.169Z,4.90
2018-11-22T18:00:36.961Z,4.90
2018-11-22T18:03:06.565Z,4.90
2018-11-22T18:05:35.307Z,4.90
2018-11-22T18:08:03.879Z,4.90
2018-11-22T18:10:34.099Z,4.90
2018-11-22T18:13:02.690Z,4.90
2018-11-22T18:15:33.850Z,4.90
2018-11-22T18:18:02.411Z,4.90
2018-11-22T18:20:32.013Z,4.90
2018-11-22T18:23:01.447Z,4.90
2018-11-22T18:25:31.575Z,4.90
2018-11-22T18:28:00.563Z,4.90
2018-11-22T18:30:30.568Z,4.90
2018-11-22T18:33:04.865Z,4.90
2018-11-22T18:35:33.508Z,4.90
2018-11-22T18:38:03.502Z,4.90
2018-11-22T18:40:33.843Z,5.00
2018-11-22T18:43:03.251Z,5.00
2018-11-22T18:45:35.092Z,5.00
2018-11-22T18:48:06.963Z,5.00
2018-11-22T18:50:36.249Z,5.00
2018-11-22T18:53:06.260Z,5.00
2018-11-22T18:55:34.853Z,5.00
2018-11-22T18:58:04.965Z,5.00
2018-11-22T19:00:36.974Z,5.00
2018-11-22T19:03:07.698Z,5.00
2018-11-22T19:05:36.282Z,5.00
2018-11-22T19:08:05.133Z,5.00
2018-11-22T19:10:35.334Z,5.00
2018-11-22T19:13:05.510Z,5.00
2018-11-22T19:15:35.747Z,5.00
2018-11-22T19:18:05.129Z,5.00
2018-11-22T19:20:36.345Z,5.00
2018-11-22T19:23:06.065Z,5.10
2018-11-22T19:25:34.816Z,5.10
2018-11-22T19:28:05.321Z,5.10
2018-11-22T19:30:37.305Z,5.10
2018-11-22T19:33:06.855Z,5.10
2018-11-22T19:35:37.477Z,5.10
2018-11-22T19:38:06.665Z,5.10
2018-11-22T19:40:36.681Z,5.10
2018-11-22T19:43:08.062Z,5.20
2018-11-22T19:45:38.331Z,5.20
2018-11-22T19:48:07.554Z,5.20
2018-11-22T19:50:36.544Z,5.20
2018-11-22T19:53:06.768Z,5.20
2018-11-22T19:55:36.369Z,5.30
2018-11-22T19:58:06.570Z,5.30
2018-11-22T20:00:35.267Z,5.30
2018-11-22T20:03:05.012Z,5.30
2018-11-22T20:05:35.082Z,5.40
2018-11-22T20:08:05.385Z,5.40
2018-11-22T20:10:36.576Z,5.40
2018-11-22T20:13:05.281Z,5.40
2018-11-22T20:15:34.356Z,5.50
2018-11-22T20:18:04.293Z,5.50
2018-11-22T20:20:33.074Z,5.50
2018-11-22T20:23:01.779Z,5.50
2018-11-22T20:25:30.584Z,5.60
2018-11-22T20:27:59.205Z,5.60
2018-11-22T20:30:29.624Z,5.60
2018-11-22T20:32:58.236Z,5.60
2018-11-22T20:35:26.852Z,5.60
2018-11-22T20:37:55.522Z,5.60
2018-11-22T20:40:25.356Z,5.60
2018-11-22T20:42:54.069Z,5.70
2018-11-22T20:45:24.513Z,5.70
2018-11-22T20:47:54.840Z,5.70
2018-11-22T20:50:24.780Z,5.70
2018-11-22T20:52:53.546Z,5.70
2018-11-22T20:55:25.592Z,5.70
2018-11-22T20:57:55.442Z,5.70
2018-11-22T21:00:27.746Z,5.70
2018-11-22T21:02:56.440Z,5.70
2018-11-22T21:05:25.742Z,5.70
2018-11-22T21:07:54.599Z,5.70
2018-11-22T21:10:25.516Z,5.70
2018-11-22T21:12:54.464Z,5.70
2018-11-22T21:15:25.906Z,5.80
2018-11-22T21:17:57.034Z,5.70
2018-11-22T21:20:29.032Z,5.70
2018-11-22T21:22:57.948Z,5.80
2018-11-22T21:25:26.614Z,5.80
2018-11-22T21:27:55.177Z,5.80
2018-11-22T21:30:26.428Z,5.80
2018-11-22T21:32:55.241Z,5.80
2018-11-22T21:35:24.425Z,5.80
2018-11-22T21:37:54.381Z,5.80
2018-11-22T21:40:23.887Z,5.80
2018-11-22T21:42:53.801Z,5.80
2018-11-22T21:45:23.695Z,5.80
2018-11-22T21:47:52.266Z,5.80
2018-11-22T21:50:22.155Z,5.80
2018-11-22T21:52:50.696Z,5.90
2018-11-22T21:55:21.544Z,5.90
2018-11-22T21:57:50.721Z,5.90
2018-11-22T22:00:24.857Z,5.90
2018-11-22T22:02:55.998Z,5.90
2018-11-22T22:05:24.629Z,5.90
2018-11-22T22:07:53.217Z,5.90
2018-11-22T22:10:21.819Z,5.90
2018-11-22T22:12:50.537Z,5.90
2018-11-22T22:15:21.746Z,5.90
2018-11-22T22:17:50.358Z,5.90
2018-11-22T22:20:22.489Z,5.90
2018-11-22T22:22:51.055Z,5.90
2018-11-22T22:25:20.852Z,5.90
2018-11-22T22:27:50.003Z,5.90
2018-11-22T22:30:21.124Z,5.90
2018-11-22T22:32:51.703Z,5.90
2018-11-22T22:35:19.441Z,5.90
2018-11-22T22:37:48.054Z,5.90
2018-11-22T22:40:19.025Z,5.90
2018-11-22T22:42:48.432Z,5.90
2018-11-22T22:45:17.904Z,5.90
2018-11-22T22:47:47.266Z,5.90
2018-11-22T22:50:17.148Z,5.90
2018-11-22T22:52:46.577Z,6.00
2018-11-22T22:55:15.132Z,5.90
2018-11-22T22:57:44.039Z,6.00
2018-11-22T23:00:22.158Z,5.90
2018-11-22T23:02:52.310Z,5.90
2018-11-22T23:05:21.561Z,5.90
2018-11-22T23:07:50.204Z,5.90
2018-11-22T23:10:19.403Z,5.90
2018-11-22T23:12:48.108Z,5.90
2018-11-22T23:15:17.389Z,5.90
2018-11-22T23:17:46.025Z,5.90
2018-11-22T23:20:17.109Z,5.90
2018-11-22T23:22:46.287Z,5.90
2018-11-22T23:25:15.432Z,5.90
2018-11-22T23:27:44.069Z,5.90
2018-11-22T23:30:16.165Z,5.90
2018-11-22T23:32:46.287Z,5.90
2018-11-22T23:35:15.060Z,5.90
2018-11-22T23:37:44.145Z,5.90
2018-11-22T23:40:16.165Z,5.80
2018-11-22T23:42:45.114Z,5.80
2018-11-22T23:45:15.052Z,5.80
2018-11-22T23:47:44.151Z,5.80
2018-11-22T23:50:15.713Z,5.80
2018-11-22T23:52:45.499Z,5.90
2018-11-22T23:55:14.262Z,5.80
2018-11-22T23:57:43.064Z,5.80
